Time;durP1;ratioP1;P1;durP2;ratioP2;P2;SDS_P1;SDS_P2;PMS_P1;PMS_P2;Temp;Humidity;BMP_temperature;BMP_pressure;BME280_temperature;BME280_humidity;BME280_pressure;Samples;Min_cycle;Max_cycle;Signal;HPM_P1;HPM_P2
2023/01/11 00:01:08;;;;;;;;;;;;;;;;;;5081587;28;19919;-63
2023/01/11 00:03:34;;;;;;;;;;;;;;;;;;5082337;28;20005;-63
2023/01/11 00:06:00;;;;;;;;;;;;;;;;;;5089460;28;19916;-63
2023/01/11 00:08:26;;;;;;;;;;;;;;;;;;5081647;28;19908;-63
2023/01/11 00:10:52;;;;;;;;;;;;;;;;;;5093591;28;19915;-63
2023/01/11 00:13:18;;;;;;;;;;;;;;;;;;5094310;28;19948;-63
2023/01/11 00:15:44;;;;;;;;;;;;;;;;;;5095443;28;19916;-63
2023/01/11 00:18:10;;;;;;;;;;;;;;;;;;5095567;28;19912;-63
2023/01/11 00:20:36;;;;;;;;;;;;;;;;;;5095880;28;19915;-63
2023/01/11 00:23:02;;;;;;;;;;;;;;;;;;5095754;28;19915;-63
2023/01/11 00:25:28;;;;;;;;;;;;;;;;;;5095697;28;19930;-63
2023/01/11 00:27:54;;;;;;;;;;;;;;;;;;5095604;28;20385;-63
2023/01/11 00:30:19;;;;;;;;;;;;;;;;;;5095518;28;20381;-63
2023/01/11 00:32:45;;;;;;;;;;;;;;;;;;5095799;28;20003;-63
2023/01/11 00:35:11;;;;;;;;;;;;;;;;;;5095451;28;19951;-63
2023/01/11 00:37:37;;;;;;;;;;;;;;;;;;5095451;28;19912;-63
2023/01/11 00:40:03;;;;;;;;;;;;;;;;;;5095232;28;19908;-63
2023/01/11 00:48:03;;;;;;;;;;;;;;;;;;5095315;28;20295;-63
2023/01/11 00:50:29;;;;;;;;;;;;;;;;;;5095194;28;20115;-63
2023/01/11 00:52:55;;;;;;;;;;;;;;;;;;5095161;28;19912;-63
2023/01/11 00:55:21;;;;;;;;;;;;;;;;;;5095130;28;19915;-63
2023/01/11 00:57:47;;;;;;;;;;;;;;;;;;5095066;28;19912;-63
2023/01/11 01:00:13;;;;;;;;;;;;;;;;;;5094816;28;20261;-63
2023/01/11 01:02:39;;;;;;;;;;;;;;;;;;5093750;28;19930;-63
2023/01/11 01:05:05;;;;;;;;;;;;;;;;;;5094993;28;19963;-62
2023/01/11 01:07:31;;;;;;;;;;;;;;;;;;5094853;28;20288;-63
2023/01/11 01:09:57;;;;;;;;;;;;;;;;;;5094671;28;19966;-63
2023/01/11 01:15:07;;;;;;;;;;;5.10;76.80;;;;;;5094857;28;19931;-63
2023/01/11 01:17:33;;;;;;;;;;;4.20;82.60;;;;;;5094584;28;20360;-63
2023/01/11 01:19:58;;;;;;;;;;;4.10;82.90;;;;;;5094499;28;19912;-63
2023/01/11 01:22:24;;;;;;;;;;;4.20;83.30;;;;;;5092486;28;19922;-63
2023/01/11 01:24:50;;;;;;;;;;;4.10;83.10;;;;;;5094736;28;19908;-63
2023/01/11 01:27:16;;;;;;;;;;;4.10;83.00;;;;;;5094576;28;20008;-63
2023/01/11 01:29:42;;;;;;;;;;;4.10;83.10;;;;;;5094359;28;19961;-63
2023/01/11 01:32:08;;;;;;;;;;;3.80;84.50;;;;;;5094399;28;19915;-63
2023/01/11 01:34:37;;;;;;;;;;;3.60;85.90;;;;;;5094347;28;19916;-63
2023/01/11 01:37:03;;;;;;;;;;;3.50;87.20;;;;;;5094150;28;19939;-63
2023/01/11 01:39:28;;;;;;;;;;;3.60;87.00;;;;;;5094248;28;19908;-62
2023/01/11 01:41:54;;;;;;;;;;;3.70;85.80;;;;;;5094334;28;20441;-63
2023/01/11 01:44:38;;;;;;;;;;;3.80;86.80;;;;;;5094206;28;19908;-63
2023/01/11 01:47:04;;;;;;;;;;;3.80;86.80;;;;;;5092741;28;20384;-63
2023/01/11 01:49:30;;;;;;;;;;;3.80;86.50;;;;;;5093892;28;19909;-62
2023/01/11 01:51:56;;;;;;;;;;;3.70;86.60;;;;;;5094611;28;19947;-62
2023/01/11 01:54:23;;;;;;;;;;;3.60;87.50;;;;;;5093978;28;19908;-62
2023/01/11 01:56:55;;;;;;;;;;;3.60;88.30;;;;;;5093968;28;19996;-62
2023/01/11 01:59:22;;;;;;;;;;;3.60;88.00;;;;;;5092355;28;19915;-62
2023/01/11 02:01:48;;;;;;;;;;;3.70;87.60;;;;;;5093807;28;19931;-61
2023/01/11 02:04:14;;;;;;;;;;;;;;;;;;5093797;28;20365;-62
2023/01/11 02:06:40;;;;;;;;;;;;;;;;;;5093751;28;20058;-61
2023/01/11 02:09:05;;;;;;;;;;;;;;;;;;5093553;28;19915;-62
2023/01/11 02:11:31;;;;;;;;;;;;;;;;;;5093694;28;20284;-62
2023/01/11 02:13:57;;;;;;;;;;;;;;;;;;5093621;28;19909;-62
2023/01/11 02:16:23;;;;;;;;;;;;;;;;;;5093332;28;19919;-61
2023/01/11 02:18:49;;;;;;;;;;;;;;;;;;5093415;28;19908;-62
2023/01/11 02:21:15;;;;;;;;;;;;;;;;;;5093595;28;19916;-62
2023/01/11 02:23:41;;;;;;;;;;;;;;;;;;5093440;28;19908;-62
2023/01/11 02:26:07;;;;;;;;;;;;;;;;;;5093421;28;19954;-62
2023/01/11 02:28:33;;;;;;;;;;;;;;;;;;5093088;28;20288;-62
2023/01/11 02:30:59;;;;;;;;;;;;;;;;;;5093418;28;19908;-62
2023/01/11 02:33:24;;;;;;;;;;;;;;;;;;5093342;28;19966;-61
2023/01/11 02:35:50;;;;;;;;;;;;;;;;;;5093192;28;19916;-62
2023/01/11 02:38:16;;;;;;;;;;;;;;;;;;5092850;28;19912;-62
2023/01/11 02:40:42;;;;;;;;;;;;;;;;;;5093241;28;19908;-62
2023/01/11 02:45:53;;;;;;;;;;;;;;;;;;5092918;28;20296;-62
2023/01/11 02:48:19;;;;;;;;;;;;;;;;;;5092904;28;19908;-62
2023/01/11 02:50:44;;;;;;;;;;;;;;;;;;5092981;28;19923;-62
2023/01/11 02:53:10;;;;;;;;;;;;;;;;;;5093007;28;19908;-62
2023/01/11 02:55:36;;;;;;;;;;;;;;;;;;5092852;28;19912;-61
2023/01/11 02:58:02;;;;;;;;;;;;;;;;;;5092608;28;19957;-62
2023/01/11 03:00:28;;;;;;;;;;;;;;;;;;5092659;28;19948;-62
2023/01/11 03:02:54;;;;;;;;;;;;;;;;;;5092856;28;19974;-62
2023/01/11 03:05:20;;;;;;;;;;;;;;;;;;5092761;28;20300;-62
2023/01/11 03:07:46;;;;;;;;;;;;;;;;;;5091991;28;20376;-62
2023/01/11 03:10:12;;;;;;;;;;;;;;;;;;5091313;28;19916;-61
2023/01/11 03:12:56;;;;;;;;;;;;;;;;;;5092257;28;20000;-62
2023/01/11 03:15:22;;;;;;;;;;;;;;;;;;5092547;28;19909;-62
2023/01/11 03:17:48;;;;;;;;;;;;;;;;;;5092389;28;19916;-62
2023/01/11 03:20:14;;;;;;;;;;;;;;;;;;5092337;28;19912;-62
2023/01/11 03:22:40;;;;;;;;;;;;;;;;;;5092438;28;19977;-62
2023/01/11 03:25:06;;;;;;;;;;;;;;;;;;5092259;28;20364;-61
2023/01/11 03:27:31;;;;;;;;;;;;;;;;;;5092288;28;19962;-62
2023/01/11 03:29:57;;;;;;;;;;;;;;;;;;5092150;28;19953;-62
2023/01/11 03:32:23;;;;;;;;;;;;;;;;;;5092283;28;19908;-61
2023/01/11 03:34:49;;;;;;;;;;;;;;;;;;5092189;28;19908;-62
2023/01/11 03:37:15;;;;;;;;;;;;;;;;;;5092198;28;20394;-62
2023/01/11 03:39:41;;;;;;;;;;;;;;;;;;5090983;28;19991;-62
2023/01/11 03:42:07;;;;;;;;;;;;;;;;;;5092192;28;19994;-62
2023/01/11 03:44:33;;;;;;;;;;;;;;;;;;5091890;28;19981;-61
2023/01/11 03:46:59;;;;;;;;;;;;;;;;;;5092062;28;19912;-61
2023/01/11 03:49:25;;;;;;;;;;;;;;;;;;5091860;28;20007;-62
2023/01/11 03:51:51;;;;;;;;;;;;;;;;;;5090668;28;20288;-62
2023/01/11 03:54:17;;;;;;;;;;;;;;;;;;5090732;28;19936;-62
2023/01/11 03:56:43;;;;;;;;;;;;;;;;;;5091849;28;19947;-62
2023/01/11 03:59:09;;;;;;;;;;;;;;;;;;5091794;28;19908;-62
2023/01/11 04:01:35;;;;;;;;;;;;;;;;;;5090680;28;19912;-62
2023/01/11 04:04:01;;;;;;;;;;;;;;;;;;5091984;28;19912;-61
2023/01/11 04:06:27;;;;;;;;;;;;;;;;;;5091755;28;20365;-62
2023/01/11 04:08:52;;;;;;;;;;;;;;;;;;5091634;28;20003;-62
2023/01/11 04:11:18;;;;;;;;;;;;;;;;;;5091813;28;19958;-62
2023/01/11 04:13:44;;;;;;;;;;;;;;;;;;5091836;28;19912;-61
2023/01/11 04:16:10;;;;;;;;;;;;;;;;;;5091727;28;19961;-62
2023/01/11 04:18:36;;;;;;;;;;;;;;;;;;5091891;28;19912;-62
2023/01/11 04:21:02;;;;;;;;;;;;;;;;;;5091715;28;19959;-62
2023/01/11 04:23:28;;;;;;;;;;;;;;;;;;5091659;28;19985;-62
2023/01/11 04:25:54;;;;;;;;;;;;;;;;;;5091744;28;19915;-62
2023/01/11 04:28:20;;;;;;;;;;;;;;;;;;5090233;28;20003;-62
2023/01/11 04:30:46;;;;;;;;;;;;;;;;;;5091865;28;20046;-62
2023/01/11 04:33:13;;;;;;;;;;;;;;;;;;5091752;28;19908;-62
2023/01/11 04:35:39;;;;;;;;;;;;;;;;;;5091406;28;19916;-62
2023/01/11 04:38:05;;;;;;;;;;;;;;;;;;5091300;28;19916;-62
2023/01/11 04:40:31;;;;;;;;;;;;;;;;;;5091585;28;19939;-62
2023/01/11 04:43:00;;;;;;;;;;;;;;;;;;5091602;28;19911;-62
2023/01/11 04:45:26;;;;;;;;;;;;;;;;;;5091552;28;19916;-62
2023/01/11 04:47:52;;;;;;;;;;;;;;;;;;5091319;28;19904;-61
2023/01/11 04:50:18;;;;;;;;;;;;;;;;;;5091282;28;19983;-61
2023/01/11 04:52:44;;;;;;;;;;;;;;;;;;5091345;28;20024;-61
2023/01/11 04:55:10;;;;;;;;;;;;;;;;;;5091668;28;20467;-62
2023/01/11 04:57:36;;;;;;;;;;;;;;;;;;5094353;28;19912;-62
2023/01/11 05:00:05;;;;;;;;;;;;;;;;;;5094965;28;19908;-62
2023/01/11 05:02:31;;;;;;;;;;;;;;;;;;5094695;28;19915;-62
2023/01/11 05:04:56;;;;;;;;;;;;;;;;;;5094954;28;19908;-62
2023/01/11 05:07:22;;;;;;;;;;;;;;;;;;5093549;28;19943;-62
2023/01/11 05:09:48;;;;;;;;;;;;;;;;;;5094800;28;19908;-62
2023/01/11 05:12:14;;;;;;;;;;;;;;;;;;5094881;28;19968;-62
2023/01/11 05:14:40;;;;;;;;;;;;;;;;;;5094862;28;19961;-62
2023/01/11 05:17:06;;;;;;;;;;;;;;;;;;5094706;28;20329;-63
2023/01/11 05:19:32;;;;;;;;;;;;;;;;;;5093487;28;20383;-63
2023/01/11 05:21:58;;;;;;;;;;;;;;;;;;5094291;28;19908;-62
2023/01/11 05:24:24;;;;;;;;;;;;;;;;;;5094754;28;19969;-62
2023/01/11 05:26:51;;;;;;;;;;;;;;;;;;5094558;28;19915;-62
2023/01/11 05:29:19;;;;;;;;;;;;;;;;;;5094365;28;19908;-63
2023/01/11 05:31:45;;;;;;;;;;;;;;;;;;5093122;28;19912;-63
2023/01/11 05:34:11;;;;;;;;;;;;;;;;;;5094338;28;19908;-62
2023/01/11 05:36:37;;;;;;;;;;;;;;;;;;5094140;28;19938;-62
2023/01/11 05:39:03;;;;;;;;;;;;;;;;;;5094203;28;19908;-62
2023/01/11 05:41:29;;;;;;;;;;;;;;;;;;5094400;28;20296;-62
2023/01/11 05:46:39;;;;;;;;;;;;;;;;;;5094175;28;19962;-62
2023/01/11 05:49:05;;;;;;;;;;;;;;;;;;5093953;28;19916;-65
2023/01/11 05:51:31;;;;;;;;;;;;;;;;;;5094394;28;19969;-64
2023/01/11 05:53:57;;;;;;;;;;;;;;;;;;5094114;28;20436;-64
2023/01/11 05:56:23;;;;;;;;;;;;;;;;;;5094036;28;19919;-62
2023/01/11 05:58:49;;;;;;;;;;;;;;;;;;5093613;28;19918;-63
2023/01/11 06:01:15;;;;;;;;;;;;;;;;;;5093939;28;20303;-62
2023/01/11 06:03:41;;;;;;;;;;;;;;;;;;5093858;28;20002;-64
2023/01/11 06:06:07;;;;;;;;;;;;;;;;;;5093716;28;19999;-64
2023/01/11 06:08:33;;;;;;;;;;;;;;;;;;5093243;28;19941;-64
2023/01/11 06:10:58;;;;;;;;;;;;;;;;;;5093651;28;19915;-62
2023/01/11 06:13:28;;;;;;;;;;;;;;;;;;5093595;28;19915;-62
2023/01/11 06:15:54;;;;;;;;;;;;;;;;;;5093573;28;19953;-62
2023/01/11 06:18:20;;;;;;;;;;;;;;;;;;5093215;28;19915;-62
2023/01/11 06:20:45;;;;;;;;;;;;;;;;;;5093551;28;19912;-62
2023/01/11 06:23:11;;;;;;;;;;;;;;;;;;5093792;28;19908;-62
2023/01/11 06:25:37;;;;;;;;;;;;;;;;;;5093560;28;19908;-63
2023/01/11 06:28:03;;;;;;;;;;;;;;;;;;5093390;28;19915;-62
2023/01/11 06:30:29;;;;;;;;;;;;;;;;;;5093195;28;19912;-62
2023/01/11 06:33:04;;;;;;;;;;;;;;;;;;5093553;28;19923;-62
2023/01/11 06:35:30;;;;;;;;;;;;;;;;;;5093211;28;19916;-62
2023/01/11 06:37:55;;;;;;;;;;;;;;;;;;5091850;28;19922;-62
2023/01/11 06:40:21;;;;;;;;;;;;;;;;;;5093319;28;20003;-61
2023/01/11 06:42:47;;;;;;;;;;;;;;;;;;5093200;28;20007;-62
2023/01/11 06:45:13;;;;;;;;;;;;;;;;;;5093012;28;19999;-62
2023/01/11 06:47:39;;;;;;;;;;;;;;;;;;5092955;28;20003;-62
2023/01/11 06:50:05;;;;;;;;;;;;;;;;;;5091563;28;19912;-64
2023/01/11 06:52:31;;;;;;;;;;;;;;;;;;5093381;28;19908;-64
2023/01/11 06:54:57;;;;;;;;;;;;;;;;;;5093005;28;19912;-64
2023/01/11 06:57:23;;;;;;;;;;;;;;;;;;5092714;28;20376;-64
2023/01/11 06:59:49;;;;;;;;;;;;;;;;;;5092595;28;20438;-64
2023/01/11 07:02:15;;;;;;;;;;;;;;;;;;5092827;28;20166;-64
2023/01/11 07:04:40;;;;;;;;;;;;;;;;;;5092911;28;19915;-64
2023/01/11 07:07:06;;;;;;;;;;;;;;;;;;5091381;28;20007;-64
2023/01/11 07:09:32;;;;;;;;;;;;;;;;;;5092508;28;20002;-64
2023/01/11 07:11:58;;;;;;;;;;;;;;;;;;5091252;28;20440;-65
2023/01/11 07:14:24;;;;;;;;;;;;;;;;;;5092539;28;20057;-65
2023/01/11 07:16:50;;;;;;;;;;;;;;;;;;5092308;28;19961;-64
2023/01/11 07:19:17;;;;;;;;;;;;;;;;;;5091710;28;19988;-64
2023/01/11 07:21:43;;;;;;;;;;;;;;;;;;5092515;28;19908;-64
2023/01/11 07:24:09;;;;;;;;;;;;;;;;;;5092338;28;19908;-64
2023/01/11 07:26:40;;;;;;;;;;;;;;;;;;5092365;28;20403;-65
2023/01/11 07:29:05;;;;;;;;;;;;;;;;;;5092140;28;20304;-62
2023/01/11 07:31:31;;;;;;;;;;;;;;;;;;5092252;28;19947;-62
2023/01/11 07:33:57;;;;;;;;;;;;;;;;;;5092336;28;19961;-63
2023/01/11 07:36:23;;;;;;;;;;;;;;;;;;5092009;28;19955;-62
2023/01/11 07:38:51;;;;;;;;;;;;;;;;;;5091058;28;21450;-62
2023/01/11 07:44:01;;;;;;;;;;;;;;;;;;5092194;28;19931;-62
2023/01/11 07:46:27;;;;;;;;;;;;;;;;;;5092178;28;20368;-63
2023/01/11 07:48:53;;;;;;;;;;;;;;;;;;5091849;28;20365;-62
2023/01/11 07:51:22;;;;;;;;;;;;;;;;;;5092502;28;19959;-63
2023/01/11 07:53:48;;;;;;;;;;;;;;;;;;5092066;28;19915;-64
2023/01/11 07:56:14;;;;;;;;;;;;;;;;;;5090990;28;19915;-64
2023/01/11 07:58:40;;;;;;;;;;;;;;;;;;5091782;28;20273;-64
2023/01/11 08:01:06;;;;;;;;;;;;;;;;;;5091732;28;20011;-64
2023/01/11 08:03:32;;;;;;;;;;;;;;;;;;5091902;28;19998;-63
2023/01/11 08:05:58;;;;;;;;;;;;;;;;;;5090499;28;19951;-63
2023/01/11 08:08:24;;;;;;;;;;;;;;;;;;5091585;28;19909;-64
2023/01/11 08:14:37;;;;;;;;;;;;;;;;;;5090314;28;19931;-63
2023/01/11 08:16:20;;;;;;;;;;;;;;;;;;5091237;28;19916;-63
2023/01/11 08:18:46;;;;;;;;;;;;;;;;;;5091981;28;20366;-64
2023/01/11 08:21:12;;;;;;;;;;;;;;;;;;5091792;28;19908;-64
2023/01/11 08:23:38;;;;;;;;;;;;;;;;;;5091719;28;19962;-63
2023/01/11 08:26:04;;;;;;;;;;;;;;;;;;5091687;28;19908;-63
2023/01/11 08:28:30;;;;;;;;;;;;;;;;;;5091504;28;19954;-63
2023/01/11 08:30:56;;;;;;;;;;;;;;;;;;5093643;28;19908;-63
2023/01/11 08:33:22;;;;;;;;;;;;;;;;;;5095538;28;19908;-63
2023/01/11 08:35:48;;;;;;;;;;;;;;;;;;5094145;28;20435;-63
2023/01/11 08:38:14;;;;;;;;;;;;;;;;;;5095403;28;20262;-63
2023/01/11 08:40:40;;;;;;;;;;;;;;;;;;5095449;28;20345;-63
2023/01/11 08:43:06;;;;;;;;;;;;;;;;;;5095551;28;19915;-63
2023/01/11 08:45:33;;;;;;;;;;;;;;;;;;5095345;28;19950;-63
2023/01/11 08:47:58;;;;;;;;;;;;;;;;;;5095205;28;20450;-63
2023/01/11 08:50:24;;;;;;;;;;;;;;;;;;5095218;28;19908;-63
2023/01/11 08:52:50;;;;;;;;;;;;;;;;;;5095297;28;19975;-63
2023/01/11 08:55:16;;;;;;;;;;;3.80;96.50;;;;;;5095255;28;19915;-62
2023/01/11 08:57:42;;;;;;;;;;;3.80;93.10;;;;;;5095294;28;19912;-61
2023/01/11 09:00:07;;;;;;;;;;;3.80;93.70;;;;;;5094773;28;19908;-63
2023/01/11 09:02:33;;;;;;;;;;;3.80;93.50;;;;;;5095012;28;19999;-64
2023/01/11 09:04:59;;;;;;;;;;;3.90;93.80;;;;;;5095041;28;20001;-63
2023/01/11 09:07:24;;;;;;;;;;;4.00;93.30;;;;;;5094947;28;19927;-63
2023/01/11 09:09:50;;;;;;;;;;;4.20;92.70;;;;;;5093448;28;19915;-63
2023/01/11 09:12:16;;;;;;;;;;;;;;;;;;5094917;28;19908;-64
2023/01/11 09:14:42;;;;;;;;;;;;;;;;;;5094762;28;20281;-63
2023/01/11 09:17:08;;;;;;;;;;;;;;;;;;5093598;28;20296;-62
2023/01/11 09:19:34;;;;;;;;;;;;;;;;;;5094620;28;19908;-62
2023/01/11 09:22:03;;;;;;;;;;;;;;;;;;5094728;28;19956;-62
2023/01/11 09:24:29;;;;;;;;;;;;;;;;;;5094595;28;19908;-63
2023/01/11 09:26:55;;;;;;;;;;;;;;;;;;5094601;28;20249;-63
2023/01/11 09:29:21;;;;;;;;;;;;;;;;;;5094322;28;19908;-63
2023/01/11 09:31:47;;;;;;;;;;;;;;;;;;5094430;28;19908;-63
2023/01/11 09:34:13;;;;;;;;;;;;;;;;;;5094523;28;19922;-62
2023/01/11 09:36:39;;;;;;;;;;;;;;;;;;5092995;28;19962;-63
2023/01/11 09:39:07;;;;;;;;;;;;;;;;;;5094369;28;19912;-62
2023/01/11 09:41:33;;;;;;;;;;;;;;;;;;5093879;28;19908;-62
2023/01/11 09:44:00;;;;;;;;;;;;;;;;;;5094106;28;20338;-63
2023/01/11 09:46:26;;;;;;;;;;;;;;;;;;5094090;28;19908;-62
2023/01/11 09:48:52;;;;;;;;;;;;;;;;;;5094012;28;19915;-62
2023/01/11 09:51:19;;;;;;;;;;;;;;;;;;5094216;28;19908;-63
2023/01/11 09:53:48;;;;;;;;;;;;;;;;;;5094334;28;19919;-62
2023/01/11 09:56:14;;;;;;;;;;;;;;;;;;5093953;28;19915;-63
2023/01/11 09:58:41;;;;;;;;;;;;;;;;;;5093626;28;19912;-62
2023/01/11 10:01:09;;;;;;;;;;;;;;;;;;5093788;28;19914;-63
2023/01/11 10:03:35;;;;;;;;;;;;;;;;;;5094255;28;20308;-63
2023/01/11 10:06:01;;;;;;;;;;;;;;;;;;5094070;28;19916;-63
2023/01/11 10:08:34;;;;;;;;;;;;;;;;;;5093728;28;20322;-63
2023/01/11 10:11:01;;;;;;;;;;;;;;;;;;5093755;28;19919;-63
2023/01/11 10:13:27;;;;;;;;;;;;;;;;;;5093583;28;19931;-63
2023/01/11 10:15:53;;;;;;;;;;;;;;;;;;5093722;28;20357;-63
2023/01/11 10:18:20;;;;;;;;;;;;;;;;;;5093755;28;20011;-63
2023/01/11 10:20:47;;;;;;;;;;;;;;;;;;5093653;28;20326;-63
2023/01/11 10:23:13;;;;;;;;;;;;;;;;;;5093600;28;19998;-63
2023/01/11 10:25:50;;;;;;;;;;;;;;;;;;5093374;28;19908;-63
2023/01/11 10:28:18;;;;;;;;;;;;;;;;;;5093068;28;19965;-63
2023/01/11 10:33:49;;;;;;;;;;;;;;;;;;5093473;28;19936;-63
2023/01/11 10:36:33;;;;;;;;;;;;;;;;;;5092889;28;19920;-63
2023/01/11 10:39:13;;;;;;;;;;;;;;;;;;5093082;28;19912;-64
2023/01/11 10:41:44;;;;;;;;;;;;;;;;;;5093171;28;19978;-64
2023/01/11 10:44:09;;;;;;;;;;;;;;;;;;5093062;28;19908;-64
2023/01/11 10:46:38;;;;;;;;;;;;;;;;;;5093007;28;20014;-64
2023/01/11 10:49:04;;;;;;;;;;;;;;;;;;5091796;28;19978;-64
2023/01/11 10:51:31;;;;;;;;;;;;;;;;;;5093440;28;19940;-64
2023/01/11 10:53:58;;;;;;;;;;;;;;;;;;5092144;28;19908;-63
2023/01/11 10:56:24;;;;;;;;;;;;;;;;;;5093102;28;20379;-63
2023/01/11 10:58:52;;;;;;;;;;;;;;;;;;5092570;28;19912;-64
2023/01/11 11:01:21;;;;;;;;;;;;;;;;;;5092692;28;19908;-64
2023/01/11 11:03:47;;;;;;;;;;;;;;;;;;5093004;28;19951;-64
2023/01/11 11:06:13;;;;;;;;;;;;;;;;;;5092628;28;19951;-64
2023/01/11 11:08:39;;;;;;;;;;;;;;;;;;5092606;28;19908;-64
2023/01/11 11:11:05;;;;;;;;;;;;;;;;;;5092555;28;20296;-63
2023/01/11 11:13:30;;;;;;;;;;;;;;;;;;5092647;28;19917;-63
2023/01/11 11:15:56;;;;;;;;;;;;;;;;;;5092500;28;19993;-62
2023/01/11 11:18:22;;;;;;;;;;;;;;;;;;5090865;28;20455;-63
2023/01/11 11:20:49;;;;;;;;;;;;;;;;;;5092487;28;19966;-64
2023/01/11 11:23:15;;;;;;;;;;;;;;;;;;5092385;28;19957;-64
2023/01/11 11:25:41;;;;;;;;;;;;;;;;;;5092262;28;19912;-64
2023/01/11 11:28:07;;;;;;;;;;;;;;;;;;5092019;28;19904;-64
2023/01/11 11:30:32;;;;;;;;;;;;;;;;;;5092206;28;20442;-64
2023/01/11 11:32:58;;;;;;;;;;;;;;;;;;5091979;28;19915;-64
2023/01/11 11:35:24;;;;;;;;;;;;;;;;;;5092149;28;19948;-64
2023/01/11 11:37:50;;;;;;;;;;;;;;;;;;5091912;28;20297;-64
2023/01/11 11:40:16;;;;;;;;;;;;;;;;;;5091937;28;19908;-64
2023/01/11 11:42:42;;;;;;;;;;;;;;;;;;5092045;28;19909;-64
2023/01/11 11:45:08;;;;;;;;;;;;;;;;;;5092012;28;19915;-64
2023/01/11 11:47:34;;;;;;;;;;;;;;;;;;5092037;28;19912;-64
2023/01/11 11:50:00;;;;;;;;;;;;;;;;;;5092119;28;19981;-64
2023/01/11 11:52:26;;;;;;;;;;;;;;;;;;5092027;28;20265;-64
2023/01/11 11:54:52;;;;;;;;;;;;;;;;;;5092005;28;20083;-64
2023/01/11 11:57:18;;;;;;;;;;;;;;;;;;5091804;28;20292;-64
2023/01/11 11:59:44;;;;;;;;;;;;;;;;;;5091629;28;19908;-64
2023/01/11 12:02:10;;;;;;;;;;;;;;;;;;5091918;28;19908;-64
2023/01/11 12:04:35;;;;;;;;;;;;;;;;;;5092231;28;19920;-64
2023/01/11 12:07:01;;;;;;;;;;;;;;;;;;5095875;28;20009;-64
2023/01/11 12:09:27;;;;;;;;;;;;;;;;;;5095828;28;19948;-64
2023/01/11 12:11:53;;;;;;;;;;;;;;;;;;5095898;28;19962;-64
2023/01/11 12:14:19;;;;;;;;;;;;;;;;;;5095918;28;20347;-64
2023/01/11 12:16:45;;;;;;;;;;;;;;;;;;5095935;28;20446;-64
2023/01/11 12:19:11;;;;;;;;;;;;;;;;;;5094341;28;19940;-64
2023/01/11 12:21:37;;;;;;;;;;;;;;;;;;5095853;28;19961;-65
2023/01/11 12:24:03;;;;;;;;;;;;;;;;;;5095717;28;19907;-64
2023/01/11 12:26:29;;;;;;;;;;;;;;;;;;5095618;28;19915;-64
2023/01/11 12:28:55;;;;;;;;;;;;;;;;;;5095375;28;19908;-64
2023/01/11 12:31:21;;;;;;;;;;;;;;;;;;5095817;28;19908;-64
2023/01/11 12:33:46;;;;;;;;;;;;;;;;;;5094433;28;20002;-64
2023/01/11 12:36:12;;;;;;;;;;;;;;;;;;5095460;28;19916;-64
2023/01/11 12:38:38;;;;;;;;;;;;;;;;;;5095310;28;19912;-64
2023/01/11 12:41:05;;;;;;;;;;;;;;;;;;5095441;28;20330;-64
2023/01/11 12:43:33;;;;;;;;;;;;;;;;;;5095402;28;20438;-64
2023/01/11 12:45:59;;;;;;;;;;;;;;;;;;5095674;28;19947;-64
2023/01/11 12:48:25;;;;;;;;;;;;;;;;;;5095264;28;19915;-64
2023/01/11 12:50:51;;;;;;;;;;;;;;;;;;5095361;28;19908;-64
2023/01/11 12:53:17;;;;;;;;;;;;;;;;;;5093939;28;19908;-64
2023/01/11 12:55:42;;;;;;;;;;;;;;;;;;5095139;28;20379;-64
2023/01/11 12:58:09;;;;;;;;;;;;;;;;;;5094697;28;19912;-64
2023/01/11 13:00:54;;;;;;;;;;;4.40;93.70;;;;;;5095277;28;20414;-64
2023/01/11 13:03:20;;;;;;;;;;;;;;;;;;5095142;28;19912;-64
2023/01/11 13:05:46;;;;;;;;;;;;;;;;;;5095084;28;20420;-64
2023/01/11 13:08:12;;;;;;;;;;;;;;;;;;5095189;28;20025;-64
2023/01/11 13:10:38;;;;;;;;;;;;;;;;;;5094864;28;19991;-64
2023/01/11 13:13:04;;;;;;;;;;;;;;;;;;5094962;28;20385;-64
2023/01/11 13:15:30;;;;;;;;;;;;;;;;;;5094950;28;19904;-64
2023/01/11 13:17:56;;;;;;;;;;;;;;;;;;5093606;28;20010;-64
2023/01/11 13:20:22;;;;;;;;;;;;;;;;;;5094592;28;19992;-64
2023/01/11 13:22:48;;;;;;;;;;;;;;;;;;5093347;28;19950;-64
2023/01/11 13:25:14;;;;;;;;;;;;;;;;;;5094525;28;19908;-64
2023/01/11 13:27:40;;;;;;;;;;;;;;;;;;5094737;28;19908;-64
2023/01/11 13:30:06;;;;;;;;;;;;;;;;;;5094465;28;19920;-64
2023/01/11 13:32:32;;;;;;;;;;;;;;;;;;5094582;28;19908;-64
2023/01/11 13:34:58;;;;;;;;;;;;;;;;;;5094399;28;19908;-65
2023/01/11 13:37:24;;;;;;;;;;;;;;;;;;5094243;28;19912;-64
2023/01/11 13:39:50;;;;;;;;;;;;;;;;;;5092824;28;19947;-64
2023/01/11 13:42:15;;;;;;;;;;;;;;;;;;5094389;28;19919;-64
2023/01/11 13:44:41;;;;;;;;;;;;;;;;;;5094358;28;20355;-64
2023/01/11 13:47:07;;;;;;;;;;;;;;;;;;5094129;28;20003;-64
2023/01/11 13:49:33;;;;;;;;;;;;;;;;;;5094126;28;20007;-64
2023/01/11 13:51:59;;;;;;;;;;;;;;;;;;5094597;28;20338;-63
2023/01/11 13:54:25;;;;;;;;;;;;;;;;;;5093958;28;20353;-63
2023/01/11 13:56:51;;;;;;;;;;;;;;;;;;5093947;28;20053;-63
2023/01/11 13:59:17;;;;;;;;;;;;;;;;;;5093756;28;20007;-63
2023/01/11 14:01:43;;;;;;;;;;;;;;;;;;5093978;28;19947;-63
2023/01/11 14:04:09;;;;;;;;;;;;;;;;;;5093890;28;19958;-63
2023/01/11 14:06:35;;;;;;;;;;;;;;;;;;5093788;28;19915;-63
2023/01/11 14:09:01;;;;;;;;;;;;;;;;;;5093581;28;19908;-63
2023/01/11 14:11:27;;;;;;;;;;;;;;;;;;5093823;28;19924;-61
2023/01/11 14:16:37;;;;;;;;;;;;;;;;;;5093590;28;19915;-62
2023/01/11 14:19:03;;;;;;;;;;;;;;;;;;5093345;28;19912;-62
2023/01/11 14:21:29;;;;;;;;;;;;;;;;;;5093433;28;19908;-62
2023/01/11 14:23:55;;;;;;;;;;;;;;;;;;5093505;28;19915;-62
2023/01/11 14:26:21;;;;;;;;;;;;;;;;;;5093405;28;19912;-62
2023/01/11 14:28:47;;;;;;;;;;;;;;;;;;5091696;28;20288;-62
2023/01/11 14:31:14;;;;;;;;;;;;;;;;;;5092999;28;19917;-62
2023/01/11 14:33:40;;;;;;;;;;;;;;;;;;5092808;28;19975;-62
2023/01/11 14:36:06;;;;;;;;;;;;;;;;;;5090916;28;19920;-62
2023/01/11 14:38:31;;;;;;;;;;;;;;;;;;5093064;28;19919;-62
2023/01/11 14:40:57;;;;;;;;;;;;;;;;;;5093278;28;19961;-62
2023/01/11 14:43:23;;;;;;;;;;;;;;;;;;5093204;28;19991;-62
2023/01/11 14:45:49;;;;;;;;;;;;;;;;;;5093124;28;19915;-61
2023/01/11 14:48:15;;;;;;;;;;;;;;;;;;5092817;28;19908;-63
2023/01/11 14:50:41;;;;;;;;;;;;;;;;;;5093004;28;20173;-63
2023/01/11 14:53:07;;;;;;;;;;;;;;;;;;5092054;28;20012;-63
2023/01/11 14:55:33;;;;;;;;;;;;;;;;;;5093077;28;20240;-63
2023/01/11 14:58:00;;;;;;;;;;;;;;;;;;5092630;28;19912;-63
2023/01/11 15:00:26;;;;;;;;;;;;;;;;;;5091324;28;19912;-63
2023/01/11 15:02:52;;;;;;;;;;;;;;;;;;5092814;28;20017;-63
2023/01/11 15:05:18;;;;;;;;;;;;;;;;;;5092778;28;20634;-63
2023/01/11 15:07:43;;;;;;;;;;;;;;;;;;5091404;28;19960;-63
2023/01/11 15:10:09;;;;;;;;;;;;;;;;;;5092543;28;19951;-63
2023/01/11 15:12:35;;;;;;;;;;;;;;;;;;5092787;28;19950;-63
2023/01/11 15:15:01;;;;;;;;;;;;;;;;;;5092616;28;19912;-63
2023/01/11 15:20:12;;;;;;;;;;;;;;;;;;5092343;28;20215;-63
2023/01/11 15:22:38;;;;;;;;;;;;;;;;;;5092469;28;19916;-63
2023/01/11 15:25:04;;;;;;;;;;;;;;;;;;5092399;28;19953;-63
2023/01/11 15:27:30;;;;;;;;;;;;;;;;;;5092281;28;19911;-63
2023/01/11 15:29:56;;;;;;;;;;;;;;;;;;5092223;28;19912;-63
2023/01/11 15:32:22;;;;;;;;;;;;;;;;;;5092289;28;19916;-63
2023/01/11 15:34:48;;;;;;;;;;;;;;;;;;5092379;28;20006;-63
2023/01/11 15:37:14;;;;;;;;;;;;;;;;;;5092174;28;20019;-63
2023/01/11 15:39:40;;;;;;;;;;;;;;;;;;5091577;28;19971;-63
2023/01/11 15:42:06;;;;;;;;;;;;;;;;;;5092207;28;19912;-63
2023/01/11 15:44:32;;;;;;;;;;;;;;;;;;5092186;28;20004;-63
2023/01/11 15:47:00;;;;;;;;;;;;;;;;;;5092087;28;20011;-63
2023/01/11 15:49:26;;;;;;;;;;;;;;;;;;5091896;28;19919;-61
2023/01/11 15:51:52;;;;;;;;;;;;;;;;;;5092322;28;19908;-63
2023/01/11 15:54:17;;;;;;;;;;;;;;;;;;5092077;28;20386;-63
2023/01/11 15:56:43;;;;;;;;;;;;;;;;;;5091945;28;19915;-63
2023/01/11 15:59:09;;;;;;;;;;;;;;;;;;5091775;28;19912;-63
2023/01/11 16:01:35;;;;;;;;;;;;;;;;;;5091944;28;20422;-62
2023/01/11 16:04:01;;;;;;;;;;;;;;;;;;5091904;28;19908;-63
2023/01/11 16:06:27;;;;;;;;;;;;;;;;;;5090582;28;19908;-63
2023/01/11 16:08:53;;;;;;;;;;;;;;;;;;5091746;28;19909;-63
2023/01/11 16:11:19;;;;;;;;;;;;;;;;;;5091792;28;19915;-63
2023/01/11 16:13:45;;;;;;;;;;;;;;;;;;5091790;28;19908;-62
2023/01/11 16:16:11;;;;;;;;;;;;;;;;;;5091781;28;19919;-62
2023/01/11 16:18:37;;;;;;;;;;;;;;;;;;5091535;28;19912;-62
2023/01/11 16:21:03;;;;;;;;;;;;;;;;;;5091826;28;19961;-63
2023/01/11 16:23:29;;;;;;;;;;;;;;;;;;5091671;28;19908;-63
2023/01/11 16:25:55;;;;;;;;;;;;;;;;;;5091743;28;19915;-63
2023/01/11 16:28:21;;;;;;;;;;;;;;;;;;5091354;28;19909;-63
2023/01/11 16:30:47;;;;;;;;;;;;;;;;;;5092156;28;19918;-62
2023/01/11 16:33:13;;;;;;;;;;;;;;;;;;5091881;28;19934;-63
2023/01/11 16:35:39;;;;;;;;;;;;;;;;;;5091571;28;20252;-63
2023/01/11 16:38:05;;;;;;;;;;;;;;;;;;5091443;28;19916;-63
2023/01/11 16:40:31;;;;;;;;;;;;;;;;;;5091522;28;19908;-63
2023/01/11 16:42:57;;;;;;;;;;;;;;;;;;5091563;28;19909;-63
2023/01/11 16:45:49;;;;;;;;;;;9.00;77.20;;;;;;5091613;28;20312;-63
2023/01/11 16:48:18;;;;;;;;;;;7.90;86.10;;;;;;5089036;28;19909;-63
2023/01/11 16:50:56;;;;;;;;;;;7.90;86.40;;;;;;5091600;28;20364;-63
2023/01/11 16:53:23;;;;;;;;;;;7.80;86.80;;;;;;5095224;28;19915;-63
2023/01/11 16:56:04;;;;;;;;;;;7.80;87.60;;;;;;5095148;28;19965;-63